sensor_id;sensor_type;location;lat;lon;timestamp;temperature;humidity
33207;DHT22;19565;46.602;11.534;2023-06-26T00:01:27;22.40;83.60
33207;DHT22;19565;46.602;11.534;2023-06-26T00:03:56;22.30;83.10
33207;DHT22;19565;46.602;11.534;2023-06-26T00:06:24;22.30;82.90
33207;DHT22;19565;46.602;11.534;2023-06-26T00:08:54;22.30;82.80
33207;DHT22;19565;46.602;11.534;2023-06-26T00:11:23;22.30;83.30
33207;DHT22;19565;46.602;11.534;2023-06-26T00:13:51;22.20;83.00
33207;DHT22;19565;46.602;11.534;2023-06-26T00:16:19;22.30;83.40
33207;DHT22;19565;46.602;11.534;2023-06-26T00:18:47;22.30;83.50
33207;DHT22;19565;46.602;11.534;2023-06-26T00:21:15;22.20;83.90
33207;DHT22;19565;46.602;11.534;2023-06-26T00:23:43;22.20;84.00
33207;DHT22;19565;46.602;11.534;2023-06-26T00:26:12;22.10;83.80
33207;DHT22;19565;46.602;11.534;2023-06-26T00:28:40;22.10;84.30
33207;DHT22;19565;46.602;11.534;2023-06-26T00:31:08;22.10;84.90
33207;DHT22;19565;46.602;11.534;2023-06-26T00:33:36;22.00;85.00
33207;DHT22;19565;46.602;11.534;2023-06-26T00:36:05;22.00;85.00
33207;DHT22;19565;46.602;11.534;2023-06-26T00:38:33;22.00;85.10
33207;DHT22;19565;46.602;11.534;2023-06-26T00:41:01;21.90;85.60
33207;DHT22;19565;46.602;11.534;2023-06-26T00:43:30;21.90;85.80
33207;DHT22;19565;46.602;11.534;2023-06-26T00:45:58;21.80;86.20
33207;DHT22;19565;46.602;11.534;2023-06-26T00:48:27;21.80;86.20
33207;DHT22;19565;46.602;11.534;2023-06-26T00:50:55;21.70;86.20
33207;DHT22;19565;46.602;11.534;2023-06-26T00:53:24;21.70;85.80
33207;DHT22;19565;46.602;11.534;2023-06-26T00:55:52;21.70;85.90
33207;DHT22;19565;46.602;11.534;2023-06-26T00:58:21;21.70;86.10
33207;DHT22;19565;46.602;11.534;2023-06-26T01:00:52;21.70;85.90
33207;DHT22;19565;46.602;11.534;2023-06-26T01:03:22;21.70;85.20
33207;DHT22;19565;46.602;11.534;2023-06-26T01:05:52;21.70;85.40
33207;DHT22;19565;46.602;11.534;2023-06-26T01:08:20;21.70;86.40
33207;DHT22;19565;46.602;11.534;2023-06-26T01:10:49;21.60;86.70
33207;DHT22;19565;46.602;11.534;2023-06-26T01:13:17;21.60;86.70
33207;DHT22;19565;46.602;11.534;2023-06-26T01:15:46;21.50;86.80
33207;DHT22;19565;46.602;11.534;2023-06-26T01:18:15;21.50;87.40
33207;DHT22;19565;46.602;11.534;2023-06-26T01:20:44;21.50;87.40
33207;DHT22;19565;46.602;11.534;2023-06-26T01:23:15;21.40;86.90
33207;DHT22;19565;46.602;11.534;2023-06-26T01:25:56;21.40;86.70
33207;DHT22;19565;46.602;11.534;2023-06-26T01:28:32;21.40;86.90
33207;DHT22;19565;46.602;11.534;2023-06-26T01:31:03;21.40;87.50
33207;DHT22;19565;46.602;11.534;2023-06-26T01:33:32;21.40;87.80
33207;DHT22;19565;46.602;11.534;2023-06-26T01:36:00;21.30;87.80
33207;DHT22;19565;46.602;11.534;2023-06-26T01:38:28;21.30;87.90
33207;DHT22;19565;46.602;11.534;2023-06-26T01:40:57;21.30;88.20
33207;DHT22;19565;46.602;11.534;2023-06-26T01:43:29;21.30;87.80
33207;DHT22;19565;46.602;11.534;2023-06-26T01:46:04;21.30;88.00
33207;DHT22;19565;46.602;11.534;2023-06-26T01:48:40;21.20;88.50
33207;DHT22;19565;46.602;11.534;2023-06-26T01:51:10;21.20;88.70
33207;DHT22;19565;46.602;11.534;2023-06-26T01:53:45;21.10;88.90
33207;DHT22;19565;46.602;11.534;2023-06-26T01:56:16;21.10;89.00
33207;DHT22;19565;46.602;11.534;2023-06-26T01:58:46;21.10;88.70
33207;DHT22;19565;46.602;11.534;2023-06-26T02:01:16;21.00;88.90
33207;DHT22;19565;46.602;11.534;2023-06-26T02:03:44;21.10;89.20
33207;DHT22;19565;46.602;11.534;2023-06-26T02:06:12;21.00;89.20
33207;DHT22;19565;46.602;11.534;2023-06-26T02:08:41;21.00;89.50
33207;DHT22;19565;46.602;11.534;2023-06-26T02:11:09;21.00;89.70
33207;DHT22;19565;46.602;11.534;2023-06-26T02:13:37;20.90;89.90
33207;DHT22;19565;46.602;11.534;2023-06-26T02:16:05;21.00;89.90
33207;DHT22;19565;46.602;11.534;2023-06-26T02:18:34;20.90;89.80
33207;DHT22;19565;46.602;11.534;2023-06-26T02:21:03;20.90;90.00
33207;DHT22;19565;46.602;11.534;2023-06-26T02:23:32;20.80;90.00
33207;DHT22;19565;46.602;11.534;2023-06-26T02:26:00;20.80;90.00
33207;DHT22;19565;46.602;11.534;2023-06-26T02:28:28;20.80;90.20
33207;DHT22;19565;46.602;11.534;2023-06-26T02:30:57;20.70;90.30
33207;DHT22;19565;46.602;11.534;2023-06-26T02:33:25;20.70;90.20
33207;DHT22;19565;46.602;11.534;2023-06-26T02:35:55;20.70;90.10
33207;DHT22;19565;46.602;11.534;2023-06-26T02:38:23;20.70;90.30
33207;DHT22;19565;46.602;11.534;2023-06-26T02:40:51;20.70;90.30
33207;DHT22;19565;46.602;11.534;2023-06-26T02:43:19;20.70;89.70
33207;DHT22;19565;46.602;11.534;2023-06-26T02:45:47;20.40;89.60
33207;DHT22;19565;46.602;11.534;2023-06-26T02:48:15;20.30;90.20
33207;DHT22;19565;46.602;11.534;2023-06-26T02:50:43;20.40;90.60
33207;DHT22;19565;46.602;11.534;2023-06-26T02:53:14;20.40;90.30
33207;DHT22;19565;46.602;11.534;2023-06-26T02:55:42;20.50;90.30
33207;DHT22;19565;46.602;11.534;2023-06-26T02:58:10;20.50;90.30
33207;DHT22;19565;46.602;11.534;2023-06-26T03:00:38;20.40;89.60
33207;DHT22;19565;46.602;11.534;2023-06-26T03:03:08;20.40;90.40
33207;DHT22;19565;46.602;11.534;2023-06-26T03:05:36;20.50;90.60
33207;DHT22;19565;46.602;11.534;2023-06-26T03:08:05;20.40;90.60
33207;DHT22;19565;46.602;11.534;2023-06-26T03:10:34;20.40;90.40
33207;DHT22;19565;46.602;11.534;2023-06-26T03:13:03;20.30;90.00
33207;DHT22;19565;46.602;11.534;2023-06-26T03:15:31;20.20;90.10
33207;DHT22;19565;46.602;11.534;2023-06-26T03:17:59;20.30;90.10
33207;DHT22;19565;46.602;11.534;2023-06-26T03:20:27;20.30;90.40
33207;DHT22;19565;46.602;11.534;2023-06-26T03:22:55;20.40;89.50
33207;DHT22;19565;46.602;11.534;2023-06-26T03:25:23;20.10;90.20
33207;DHT22;19565;46.602;11.534;2023-06-26T03:27:52;19.80;90.70
33207;DHT22;19565;46.602;11.534;2023-06-26T03:30:20;20.00;91.00
33207;DHT22;19565;46.602;11.534;2023-06-26T03:32:48;20.10;90.50
33207;DHT22;19565;46.602;11.534;2023-06-26T03:35:16;20.00;90.70
33207;DHT22;19565;46.602;11.534;2023-06-26T03:37:44;20.20;90.30
33207;DHT22;19565;46.602;11.534;2023-06-26T03:40:12;20.30;90.20
33207;DHT22;19565;46.602;11.534;2023-06-26T03:42:42;20.30;89.50
33207;DHT22;19565;46.602;11.534;2023-06-26T03:45:11;20.40;89.60
33207;DHT22;19565;46.602;11.534;2023-06-26T03:47:39;20.30;89.50
33207;DHT22;19565;46.602;11.534;2023-06-26T03:50:08;19.90;90.30
33207;DHT22;19565;46.602;11.534;2023-06-26T03:52:36;19.80;90.70
33207;DHT22;19565;46.602;11.534;2023-06-26T03:55:05;20.00;90.90
33207;DHT22;19565;46.602;11.534;2023-06-26T03:57:33;20.10;90.70
33207;DHT22;19565;46.602;11.534;2023-06-26T04:00:01;20.20;90.60
33207;DHT22;19565;46.602;11.534;2023-06-26T04:02:34;20.20;90.60
33207;DHT22;19565;46.602;11.534;2023-06-26T04:05:02;20.20;90.40
33207;DHT22;19565;46.602;11.534;2023-06-26T04:07:31;20.30;90.40
33207;DHT22;19565;46.602;11.534;2023-06-26T04:09:59;20.30;90.10
33207;DHT22;19565;46.602;11.534;2023-06-26T04:12:27;20.20;90.20
33207;DHT22;19565;46.602;11.534;2023-06-26T04:14:55;20.00;90.40
33207;DHT22;19565;46.602;11.534;2023-06-26T04:17:23;19.60;91.10
33207;DHT22;19565;46.602;11.534;2023-06-26T04:19:53;19.60;91.30
33207;DHT22;19565;46.602;11.534;2023-06-26T04:22:21;19.70;91.20
33207;DHT22;19565;46.602;11.534;2023-06-26T04:24:49;19.90;91.00
33207;DHT22;19565;46.602;11.534;2023-06-26T04:27:17;19.90;91.00
33207;DHT22;19565;46.602;11.534;2023-06-26T04:29:45;19.70;91.10
33207;DHT22;19565;46.602;11.534;2023-06-26T04:32:13;19.70;91.40
33207;DHT22;19565;46.602;11.534;2023-06-26T04:34:41;19.50;91.50
33207;DHT22;19565;46.602;11.534;2023-06-26T04:37:12;19.30;92.00
33207;DHT22;19565;46.602;11.534;2023-06-26T04:39:43;19.30;92.20
33207;DHT22;19565;46.602;11.534;2023-06-26T04:42:11;19.20;92.50
33207;DHT22;19565;46.602;11.534;2023-06-26T04:44:39;19.30;92.20
33207;DHT22;19565;46.602;11.534;2023-06-26T04:47:08;19.30;91.90
33207;DHT22;19565;46.602;11.534;2023-06-26T04:49:36;19.50;91.90
33207;DHT22;19565;46.602;11.534;2023-06-26T04:52:05;19.70;91.50
33207;DHT22;19565;46.602;11.534;2023-06-26T04:54:34;19.90;91.10
33207;DHT22;19565;46.602;11.534;2023-06-26T04:57:03;20.00;90.80
33207;DHT22;19565;46.602;11.534;2023-06-26T04:59:31;20.00;90.60
33207;DHT22;19565;46.602;11.534;2023-06-26T05:01:59;20.10;90.40
33207;DHT22;19565;46.602;11.534;2023-06-26T05:04:27;19.90;90.60
33207;DHT22;19565;46.602;11.534;2023-06-26T05:06:55;19.70;90.80
33207;DHT22;19565;46.602;11.534;2023-06-26T05:09:23;19.60;91.10
33207;DHT22;19565;46.602;11.534;2023-06-26T05:11:53;19.60;91.10
33207;DHT22;19565;46.602;11.534;2023-06-26T05:14:21;19.70;90.60
33207;DHT22;19565;46.602;11.534;2023-06-26T05:16:51;19.60;90.90
33207;DHT22;19565;46.602;11.534;2023-06-26T05:19:19;19.60;90.70
33207;DHT22;19565;46.602;11.534;2023-06-26T05:21:48;19.60;91.00
33207;DHT22;19565;46.602;11.534;2023-06-26T05:24:16;19.50;90.90
33207;DHT22;19565;46.602;11.534;2023-06-26T05:26:44;19.50;90.80
33207;DHT22;19565;46.602;11.534;2023-06-26T05:29:14;19.40;90.90
33207;DHT22;19565;46.602;11.534;2023-06-26T05:31:44;19.30;90.90
33207;DHT22;19565;46.602;11.534;2023-06-26T05:34:13;19.40;91.10
33207;DHT22;19565;46.602;11.534;2023-06-26T05:36:42;19.30;91.10
33207;DHT22;19565;46.602;11.534;2023-06-26T05:39:11;19.40;91.10
33207;DHT22;19565;46.602;11.534;2023-06-26T05:41:39;19.40;91.20
33207;DHT22;19565;46.602;11.534;2023-06-26T05:44:07;19.40;91.20
33207;DHT22;19565;46.602;11.534;2023-06-26T05:46:37;19.50;90.80
33207;DHT22;19565;46.602;11.534;2023-06-26T05:49:05;19.50;90.70
33207;DHT22;19565;46.602;11.534;2023-06-26T05:51:34;19.60;90.30
33207;DHT22;19565;46.602;11.534;2023-06-26T05:54:03;19.60;90.10
33207;DHT22;19565;46.602;11.534;2023-06-26T05:56:32;19.60;90.30
33207;DHT22;19565;46.602;11.534;2023-06-26T05:59:02;19.60;90.10
33207;DHT22;19565;46.602;11.534;2023-06-26T06:01:30;19.70;90.00
33207;DHT22;19565;46.602;11.534;2023-06-26T06:04:01;19.70;89.10
33207;DHT22;19565;46.602;11.534;2023-06-26T06:06:29;19.90;88.50
33207;DHT22;19565;46.602;11.534;2023-06-26T06:08:57;20.00;88.00
33207;DHT22;19565;46.602;11.534;2023-06-26T06:11:25;20.20;87.80
33207;DHT22;19565;46.602;11.534;2023-06-26T06:13:53;20.30;87.20
33207;DHT22;19565;46.602;11.534;2023-06-26T06:16:21;20.40;86.70
33207;DHT22;19565;46.602;11.534;2023-06-26T06:18:49;20.50;85.90
33207;DHT22;19565;46.602;11.534;2023-06-26T06:21:19;20.60;85.40
33207;DHT22;19565;46.602;11.534;2023-06-26T06:23:47;20.70;85.10
33207;DHT22;19565;46.602;11.534;2023-06-26T06:26:15;20.80;84.60
33207;DHT22;19565;46.602;11.534;2023-06-26T06:28:43;20.90;84.10
33207;DHT22;19565;46.602;11.534;2023-06-26T06:31:11;21.00;83.60
33207;DHT22;19565;46.602;11.534;2023-06-26T06:33:39;21.00;82.90
33207;DHT22;19565;46.602;11.534;2023-06-26T06:36:07;21.10;82.90
33207;DHT22;19565;46.602;11.534;2023-06-26T06:38:37;21.20;82.40
33207;DHT22;19565;46.602;11.534;2023-06-26T06:41:05;21.20;82.00
33207;DHT22;19565;46.602;11.534;2023-06-26T06:43:33;21.30;82.40
33207;DHT22;19565;46.602;11.534;2023-06-26T06:46:01;21.30;82.00
33207;DHT22;19565;46.602;11.534;2023-06-26T06:48:29;21.40;82.10
33207;DHT22;19565;46.602;11.534;2023-06-26T06:50:57;21.50;81.40
33207;DHT22;19565;46.602;11.534;2023-06-26T06:53:25;21.60;80.80
33207;DHT22;19565;46.602;11.534;2023-06-26T06:55:55;21.60;79.50
33207;DHT22;19565;46.602;11.534;2023-06-26T06:58:23;21.60;79.20
33207;DHT22;19565;46.602;11.534;2023-06-26T07:00:51;21.70;79.50
33207;DHT22;19565;46.602;11.534;2023-06-26T07:03:19;21.80;79.50
33207;DHT22;19565;46.602;11.534;2023-06-26T07:05:48;21.90;79.00
33207;DHT22;19565;46.602;11.534;2023-06-26T07:08:16;21.90;78.60
33207;DHT22;19565;46.602;11.534;2023-06-26T07:10:44;22.00;78.60
33207;DHT22;19565;46.602;11.534;2023-06-26T07:13:13;22.00;78.50
33207;DHT22;19565;46.602;11.534;2023-06-26T07:15:41;22.10;78.70
33207;DHT22;19565;46.602;11.534;2023-06-26T07:18:09;22.10;78.30
33207;DHT22;19565;46.602;11.534;2023-06-26T07:20:37;22.20;77.70
33207;DHT22;19565;46.602;11.534;2023-06-26T07:23:06;22.30;78.10
33207;DHT22;19565;46.602;11.534;2023-06-26T07:25:34;22.30;78.50
33207;DHT22;19565;46.602;11.534;2023-06-26T07:28:02;22.40;78.70
33207;DHT22;19565;46.602;11.534;2023-06-26T07:30:31;22.40;77.50
33207;DHT22;19565;46.602;11.534;2023-06-26T07:32:59;22.50;76.70
33207;DHT22;19565;46.602;11.534;2023-06-26T07:35:27;22.60;76.50
33207;DHT22;19565;46.602;11.534;2023-06-26T07:37:55;22.60;75.80
33207;DHT22;19565;46.602;11.534;2023-06-26T07:40:25;22.60;75.70
33207;DHT22;19565;46.602;11.534;2023-06-26T07:42:53;22.80;76.70
33207;DHT22;19565;46.602;11.534;2023-06-26T07:45:21;22.80;75.70
33207;DHT22;19565;46.602;11.534;2023-06-26T07:47:54;22.90;75.70
33207;DHT22;19565;46.602;11.534;2023-06-26T07:50:22;22.90;75.50
33207;DHT22;19565;46.602;11.534;2023-06-26T07:52:50;23.00;75.60
33207;DHT22;19565;46.602;11.534;2023-06-26T07:55:20;23.00;76.20
33207;DHT22;19565;46.602;11.534;2023-06-26T07:57:48;23.10;75.90
33207;DHT22;19565;46.602;11.534;2023-06-26T08:00:18;23.20;76.40
33207;DHT22;19565;46.602;11.534;2023-06-26T08:02:47;23.20;75.70
33207;DHT22;19565;46.602;11.534;2023-06-26T08:05:16;23.30;75.20
33207;DHT22;19565;46.602;11.534;2023-06-26T08:07:45;23.30;75.70
33207;DHT22;19565;46.602;11.534;2023-06-26T08:10:13;23.40;75.00
33207;DHT22;19565;46.602;11.534;2023-06-26T08:12:42;23.40;75.30
33207;DHT22;19565;46.602;11.534;2023-06-26T08:15:12;23.50;76.20
33207;DHT22;19565;46.602;11.534;2023-06-26T08:17:40;23.50;74.40
33207;DHT22;19565;46.602;11.534;2023-06-26T08:20:09;23.60;74.00
33207;DHT22;19565;46.602;11.534;2023-06-26T08:22:39;23.70;73.20
33207;DHT22;19565;46.602;11.534;2023-06-26T08:25:08;23.70;73.00
33207;DHT22;19565;46.602;11.534;2023-06-26T08:27:36;23.80;72.90
33207;DHT22;19565;46.602;11.534;2023-06-26T08:30:05;23.90;73.30
33207;DHT22;19565;46.602;11.534;2023-06-26T08:32:33;23.90;73.60
33207;DHT22;19565;46.602;11.534;2023-06-26T08:35:01;24.00;72.60
33207;DHT22;19565;46.602;11.534;2023-06-26T08:37:29;24.00;73.10
33207;DHT22;19565;46.602;11.534;2023-06-26T08:40:01;24.10;73.90
33207;DHT22;19565;46.602;11.534;2023-06-26T08:42:29;24.20;72.30
33207;DHT22;19565;46.602;11.534;2023-06-26T08:44:57;24.20;72.10
33207;DHT22;19565;46.602;11.534;2023-06-26T08:47:30;24.30;71.90
33207;DHT22;19565;46.602;11.534;2023-06-26T08:50:07;24.30;72.60
33207;DHT22;19565;46.602;11.534;2023-06-26T08:52:37;24.30;72.30
33207;DHT22;19565;46.602;11.534;2023-06-26T08:55:10;24.40;71.80
33207;DHT22;19565;46.602;11.534;2023-06-26T08:57:39;24.40;72.10
33207;DHT22;19565;46.602;11.534;2023-06-26T09:00:08;24.50;72.60
33207;DHT22;19565;46.602;11.534;2023-06-26T09:02:37;24.50;72.30
33207;DHT22;19565;46.602;11.534;2023-06-26T09:05:08;24.60;72.70
33207;DHT22;19565;46.602;11.534;2023-06-26T09:07:36;24.60;72.30
33207;DHT22;19565;46.602;11.534;2023-06-26T09:10:05;24.70;71.30
33207;DHT22;19565;46.602;11.534;2023-06-26T09:12:35;24.80;71.20
33207;DHT22;19565;46.602;11.534;2023-06-26T09:15:05;24.90;71.10
33207;DHT22;19565;46.602;11.534;2023-06-26T09:17:39;24.90;71.60
33207;DHT22;19565;46.602;11.534;2023-06-26T09:20:09;25.00;71.80
33207;DHT22;19565;46.602;11.534;2023-06-26T09:22:41;25.00;72.50
33207;DHT22;19565;46.602;11.534;2023-06-26T09:25:10;25.10;71.40
33207;DHT22;19565;46.602;11.534;2023-06-26T09:27:39;25.20;72.10
33207;DHT22;19565;46.602;11.534;2023-06-26T09:30:08;25.30;71.70
33207;DHT22;19565;46.602;11.534;2023-06-26T09:32:36;25.30;71.50
33207;DHT22;19565;46.602;11.534;2023-06-26T09:35:05;25.40;71.60
33207;DHT22;19565;46.602;11.534;2023-06-26T09:37:34;25.50;70.90
33207;DHT22;19565;46.602;11.534;2023-06-26T09:40:03;25.50;72.50
33207;DHT22;19565;46.602;11.534;2023-06-26T09:42:32;25.60;71.00
33207;DHT22;19565;46.602;11.534;2023-06-26T09:45:02;25.70;70.00
33207;DHT22;19565;46.602;11.534;2023-06-26T09:47:30;25.80;71.00
33207;DHT22;19565;46.602;11.534;2023-06-26T09:49:59;25.80;71.20
33207;DHT22;19565;46.602;11.534;2023-06-26T09:52:28;26.00;71.60
33207;DHT22;19565;46.602;11.534;2023-06-26T09:55:07;26.00;71.40
33207;DHT22;19565;46.602;11.534;2023-06-26T09:57:38;26.10;70.30
33207;DHT22;19565;46.602;11.534;2023-06-26T10:00:09;26.20;68.90
33207;DHT22;19565;46.602;11.534;2023-06-26T10:02:39;26.20;69.00
33207;DHT22;19565;46.602;11.534;2023-06-26T10:05:07;26.40;67.50
33207;DHT22;19565;46.602;11.534;2023-06-26T10:07:35;26.40;68.50
33207;DHT22;19565;46.602;11.534;2023-06-26T10:10:06;26.50;68.10
33207;DHT22;19565;46.602;11.534;2023-06-26T10:12:35;26.60;68.20
33207;DHT22;19565;46.602;11.534;2023-06-26T10:15:03;26.60;67.80
33207;DHT22;19565;46.602;11.534;2023-06-26T10:17:35;26.70;67.80
33207;DHT22;19565;46.602;11.534;2023-06-26T10:20:07;26.80;65.30
33207;DHT22;19565;46.602;11.534;2023-06-26T10:22:40;26.80;63.60
33207;DHT22;19565;46.602;11.534;2023-06-26T10:25:09;26.90;62.80
33207;DHT22;19565;46.602;11.534;2023-06-26T10:27:41;27.00;63.80
33207;DHT22;19565;46.602;11.534;2023-06-26T10:30:12;27.00;62.90
33207;DHT22;19565;46.602;11.534;2023-06-26T10:32:43;27.00;63.10
33207;DHT22;19565;46.602;11.534;2023-06-26T10:35:13;27.00;60.80
33207;DHT22;19565;46.602;11.534;2023-06-26T10:37:42;27.10;60.90
33207;DHT22;19565;46.602;11.534;2023-06-26T10:40:11;27.10;61.40
33207;DHT22;19565;46.602;11.534;2023-06-26T10:42:40;27.20;61.00
33207;DHT22;19565;46.602;11.534;2023-06-26T10:45:14;27.30;61.00
33207;DHT22;19565;46.602;11.534;2023-06-26T10:47:46;27.40;60.60
33207;DHT22;19565;46.602;11.534;2023-06-26T10:50:23;27.40;60.30
33207;DHT22;19565;46.602;11.534;2023-06-26T10:53:11;27.50;59.30
33207;DHT22;19565;46.602;11.534;2023-06-26T10:55:48;27.50;57.40
33207;DHT22;19565;46.602;11.534;2023-06-26T10:58:30;27.60;55.60
33207;DHT22;19565;46.602;11.534;2023-06-26T11:01:17;27.60;57.50
33207;DHT22;19565;46.602;11.534;2023-06-26T11:03:49;27.70;57.90
33207;DHT22;19565;46.602;11.534;2023-06-26T11:06:20;27.80;55.60
33207;DHT22;19565;46.602;11.534;2023-06-26T11:08:49;27.90;56.60
33207;DHT22;19565;46.602;11.534;2023-06-26T11:11:18;27.90;56.20
33207;DHT22;19565;46.602;11.534;2023-06-26T11:13:47;28.00;56.10
33207;DHT22;19565;46.602;11.534;2023-06-26T11:16:15;28.00;55.70
33207;DHT22;19565;46.602;11.534;2023-06-26T11:18:44;28.00;55.20
33207;DHT22;19565;46.602;11.534;2023-06-26T11:21:14;28.10;56.40
33207;DHT22;19565;46.602;11.534;2023-06-26T11:23:44;28.10;55.40
33207;DHT22;19565;46.602;11.534;2023-06-26T11:26:14;28.20;54.50
33207;DHT22;19565;46.602;11.534;2023-06-26T11:28:50;28.30;54.40
33207;DHT22;19565;46.602;11.534;2023-06-26T11:31:25;28.40;53.80
33207;DHT22;19565;46.602;11.534;2023-06-26T11:33:53;28.40;52.60
33207;DHT22;19565;46.602;11.534;2023-06-26T11:36:25;28.40;52.60
33207;DHT22;19565;46.602;11.534;2023-06-26T11:38:56;28.50;52.80
33207;DHT22;19565;46.602;11.534;2023-06-26T11:41:26;28.50;53.30
33207;DHT22;19565;46.602;11.534;2023-06-26T11:43:54;28.60;53.30
33207;DHT22;19565;46.602;11.534;2023-06-26T11:46:23;28.60;54.00
33207;DHT22;19565;46.602;11.534;2023-06-26T11:48:52;28.70;52.70
33207;DHT22;19565;46.602;11.534;2023-06-26T11:51:20;28.70;51.50
33207;DHT22;19565;46.602;11.534;2023-06-26T11:53:50;28.80;50.70
33207;DHT22;19565;46.602;11.534;2023-06-26T11:56:19;28.90;51.90
33207;DHT22;19565;46.602;11.534;2023-06-26T11:58:56;28.90;50.00
33207;DHT22;19565;46.602;11.534;2023-06-26T12:01:24;29.00;49.50
33207;DHT22;19565;46.602;11.534;2023-06-26T12:03:58;29.00;49.40
33207;DHT22;19565;46.602;11.534;2023-06-26T12:06:31;29.00;49.30
33207;DHT22;19565;46.602;11.534;2023-06-26T12:09:02;29.00;50.40
33207;DHT22;19565;46.602;11.534;2023-06-26T12:11:33;29.00;50.80
33207;DHT22;19565;46.602;11.534;2023-06-26T12:14:01;29.10;49.90
33207;DHT22;19565;46.602;11.534;2023-06-26T12:16:30;29.10;49.30
33207;DHT22;19565;46.602;11.534;2023-06-26T12:18:59;29.20;52.20
33207;DHT22;19565;46.602;11.534;2023-06-26T12:21:46;29.30;51.10
33207;DHT22;19565;46.602;11.534;2023-06-26T12:24:18;29.40;50.80
33207;DHT22;19565;46.602;11.534;2023-06-26T12:26:48;29.50;48.40
33207;DHT22;19565;46.602;11.534;2023-06-26T12:29:18;29.50;49.20
33207;DHT22;19565;46.602;11.534;2023-06-26T12:31:52;29.60;49.60
33207;DHT22;19565;46.602;11.534;2023-06-26T12:34:26;29.60;47.70
33207;DHT22;19565;46.602;11.534;2023-06-26T12:37:00;29.80;46.20
33207;DHT22;19565;46.602;11.534;2023-06-26T12:39:29;29.70;45.60
33207;DHT22;19565;46.602;11.534;2023-06-26T12:42:14;29.80;44.00
33207;DHT22;19565;46.602;11.534;2023-06-26T12:44:42;30.00;44.10
33207;DHT22;19565;46.602;11.534;2023-06-26T12:47:10;30.00;46.50
33207;DHT22;19565;46.602;11.534;2023-06-26T12:49:41;30.00;45.70
33207;DHT22;19565;46.602;11.534;2023-06-26T12:52:11;30.20;43.90
33207;DHT22;19565;46.602;11.534;2023-06-26T12:54:42;30.40;45.40
33207;DHT22;19565;46.602;11.534;2023-06-26T12:57:10;30.40;46.20
33207;DHT22;19565;46.602;11.534;2023-06-26T12:59:41;30.40;46.70
33207;DHT22;19565;46.602;11.534;2023-06-26T13:02:09;30.40;47.50
33207;DHT22;19565;46.602;11.534;2023-06-26T13:04:39;30.40;46.80
33207;DHT22;19565;46.602;11.534;2023-06-26T13:07:08;30.40;46.30
33207;DHT22;19565;46.602;11.534;2023-06-26T13:09:36;30.40;47.00
33207;DHT22;19565;46.602;11.534;2023-06-26T13:12:07;30.50;46.70
33207;DHT22;19565;46.602;11.534;2023-06-26T13:14:37;30.50;46.80
33207;DHT22;19565;46.602;11.534;2023-06-26T13:17:06;30.60;46.90
33207;DHT22;19565;46.602;11.534;2023-06-26T13:19:36;30.60;46.30
33207;DHT22;19565;46.602;11.534;2023-06-26T13:22:04;30.70;45.90
33207;DHT22;19565;46.602;11.534;2023-06-26T13:24:32;30.70;45.30
33207;DHT22;19565;46.602;11.534;2023-06-26T13:27:00;30.80;43.50
33207;DHT22;19565;46.602;11.534;2023-06-26T13:29:31;30.80;44.10
33207;DHT22;19565;46.602;11.534;2023-06-26T13:31:59;30.80;44.50
33207;DHT22;19565;46.602;11.534;2023-06-26T13:34:28;30.80;42.80
33207;DHT22;19565;46.602;11.534;2023-06-26T13:36:57;30.80;44.40
33207;DHT22;19565;46.602;11.534;2023-06-26T13:39:26;30.80;44.80
33207;DHT22;19565;46.602;11.534;2023-06-26T13:41:54;30.80;45.30
33207;DHT22;19565;46.602;11.534;2023-06-26T13:44:23;30.80;44.70
33207;DHT22;19565;46.602;11.534;2023-06-26T13:47:06;30.80;43.90
33207;DHT22;19565;46.602;11.534;2023-06-26T13:49:36;30.90;43.70
33207;DHT22;19565;46.602;11.534;2023-06-26T13:52:04;30.90;45.40
33207;DHT22;19565;46.602;11.534;2023-06-26T13:54:34;30.90;44.80
33207;DHT22;19565;46.602;11.534;2023-06-26T13:57:03;31.00;45.00
33207;DHT22;19565;46.602;11.534;2023-06-26T13:59:32;31.10;43.90
33207;DHT22;19565;46.602;11.534;2023-06-26T14:02:00;31.20;44.90
33207;DHT22;19565;46.602;11.534;2023-06-26T14:04:29;31.20;45.90
33207;DHT22;19565;46.602;11.534;2023-06-26T14:06:57;31.30;45.20
33207;DHT22;19565;46.602;11.534;2023-06-26T14:09:25;31.40;45.30
33207;DHT22;19565;46.602;11.534;2023-06-26T14:11:54;31.40;45.30
33207;DHT22;19565;46.602;11.534;2023-06-26T14:14:22;31.50;45.40
33207;DHT22;19565;46.602;11.534;2023-06-26T14:16:50;31.50;45.70
33207;DHT22;19565;46.602;11.534;2023-06-26T14:19:18;31.60;45.50
33207;DHT22;19565;46.602;11.534;2023-06-26T14:21:47;31.70;45.00
33207;DHT22;19565;46.602;11.534;2023-06-26T14:24:15;31.90;45.50
33207;DHT22;19565;46.602;11.534;2023-06-26T14:26:43;32.40;45.40
33207;DHT22;19565;46.602;11.534;2023-06-26T14:29:11;33.50;41.50
33207;DHT22;19565;46.602;11.534;2023-06-26T14:31:39;35.00;39.90
33207;DHT22;19565;46.602;11.534;2023-06-26T14:34:07;36.20;37.30
33207;DHT22;19565;46.602;11.534;2023-06-26T14:36:35;36.20;37.10
33207;DHT22;19565;46.602;11.534;2023-06-26T14:39:05;35.90;37.90
33207;DHT22;19565;46.602;11.534;2023-06-26T14:41:34;36.10;37.20
33207;DHT22;19565;46.602;11.534;2023-06-26T14:44:03;36.50;34.20
33207;DHT22;19565;46.602;11.534;2023-06-26T14:46:31;37.30;36.80
33207;DHT22;19565;46.602;11.534;2023-06-26T14:49:01;37.80;33.80
33207;DHT22;19565;46.602;11.534;2023-06-26T14:51:29;37.10;34.60
33207;DHT22;19565;46.602;11.534;2023-06-26T14:53:57;36.00;36.90
33207;DHT22;19565;46.602;11.534;2023-06-26T14:56:26;34.80;37.60
33207;DHT22;19565;46.602;11.534;2023-06-26T14:58:54;33.80;39.80
33207;DHT22;19565;46.602;11.534;2023-06-26T15:01:22;33.20;40.70
33207;DHT22;19565;46.602;11.534;2023-06-26T15:03:50;32.80;40.90
33207;DHT22;19565;46.602;11.534;2023-06-26T15:06:18;32.40;42.30
33207;DHT22;19565;46.602;11.534;2023-06-26T15:08:46;32.20;42.80
33207;DHT22;19565;46.602;11.534;2023-06-26T15:11:14;31.90;44.20
33207;DHT22;19565;46.602;11.534;2023-06-26T15:13:44;31.80;43.80
33207;DHT22;19565;46.602;11.534;2023-06-26T15:16:12;31.90;42.60
33207;DHT22;19565;46.602;11.534;2023-06-26T15:18:40;32.00;43.10
33207;DHT22;19565;46.602;11.534;2023-06-26T15:21:08;31.80;43.50
33207;DHT22;19565;46.602;11.534;2023-06-26T15:23:36;31.60;43.90
33207;DHT22;19565;46.602;11.534;2023-06-26T15:26:05;31.40;47.30
33207;DHT22;19565;46.602;11.534;2023-06-26T15:28:33;31.20;47.90